Time;durP1;ratioP1;P1;durP2;ratioP2;P2;SDS_P1;SDS_P2;PMS_P1;PMS_P2;Temp;Humidity;BMP_temperature;BMP_pressure;BME280_temperature;BME280_humidity;BME280_pressure;Samples;Min_cycle;Max_cycle;Signal;HPM_P1;HPM_P2
2021/12/29 00:00:18;;;;;;;79.22;21.42;;;;;;;;;;5147144;27;20082;-57
2021/12/29 00:02:44;;;;;;;72.82;20.98;;;;;;;;;;5147249;27;20054;-58
2021/12/29 00:05:10;;;;;;;77.80;21.00;;;;;;;;;;5146501;27;20044;-58
2021/12/29 00:07:37;;;;;;;75.13;19.50;;;;;;;;;;5147337;27;20069;-56
2021/12/29 00:10:04;;;;;;;60.72;19.92;;;;;;;;;;5147003;27;20055;-56
2021/12/29 00:12:34;;;;;;;62.22;17.95;;;;;;;;;;5128612;27;20046;-56
2021/12/29 00:15:00;;;;;;;49.70;18.58;;;;;;;;;;5147049;27;20047;-56
2021/12/29 00:17:26;;;;;;;53.90;17.10;;;;;;;;;;5147016;27;20099;-57
2021/12/29 00:19:52;;;;;;;48.88;17.08;;;;;;;;;;5147023;27;20046;-57
2021/12/29 00:22:18;;;;;;;66.55;17.90;;;;;;;;;;5127669;27;20128;-57
2021/12/29 00:24:45;;;;;;;53.25;16.73;;;;;;;;;;5146851;27;20126;-57
2021/12/29 00:27:11;;;;;;;52.88;16.60;;;;;;;;;;5146455;27;20052;-57
2021/12/29 00:29:37;;;;;;;39.83;15.00;;;;;;;;;;5146931;27;20046;-57
2021/12/29 00:32:04;;;;;;;41.22;14.88;;;;;;;;;;5146734;27;20070;-57
2021/12/29 00:34:30;;;;;;;49.97;14.80;;;;;;;;;;5146773;27;20077;-57
2021/12/29 00:36:56;;;;;;;52.47;15.63;;;;;;;;;;5146057;27;20050;-58
2021/12/29 00:39:22;;;;;;;59.40;17.85;;;;;;;;;;5146531;27;20051;-57
2021/12/29 00:41:48;;;;;;;58.80;16.45;;;;;;;;;;5146513;27;20043;-57
2021/12/29 00:44:14;;;;;;;57.33;17.83;;;;;;;;;;5146625;27;20425;-57
2021/12/29 00:46:40;;;;;;;68.03;17.85;;;;;;;;;;5146299;27;20047;-57
2021/12/29 00:49:08;;;;;;;67.13;16.20;;;;;;;;;;5146366;27;20047;-56
2021/12/29 00:51:34;;;;;;;84.97;18.83;;;;;;;;;;5145000;27;20036;-57
2021/12/29 00:54:00;;;;;;;88.93;17.83;;;;;;;;;;5146088;27;20086;-56
2021/12/29 00:56:26;;;;;;;80.60;18.35;;;;;;;;;;5146319;27;20091;-57
2021/12/29 00:58:52;;;;;;;83.70;18.13;;;;;;;;;;5146602;27;20053;-56
2021/12/29 01:01:19;;;;;;;82.85;19.02;;;;;;;;;;5145866;27;20091;-56
2021/12/29 01:07:20;;;;;;;98.82;17.20;;;;;;;;;;5140816;27;20430;-57
2021/12/29 01:09:46;;;;;;;96.00;18.60;;;;;;;;;;5145935;27;20043;-56
2021/12/29 01:12:14;;;;;;;137.75;21.13;;;;;;;;;;5145973;27;20049;-55
2021/12/29 01:14:43;;;;;;;;;;;;;;;;;;5146343;27;20051;-57
2021/12/29 01:17:10;;;;;;;121.95;19.17;;;;;;;;;;5146032;27;19919;-56
2021/12/29 01:19:36;;;;;;;118.68;20.67;;;;;;;;;;5145817;27;20043;-56
2021/12/29 01:22:02;;;;;;;98.75;20.05;;;;;;;;;;5145170;27;20047;-56
2021/12/29 01:24:30;;;;;;;111.22;19.13;;;;;;;;;;5145854;27;20099;-56
2021/12/29 01:26:56;;;;;;;109.43;20.17;;;;;;;;;;5145756;27;20047;-55
2021/12/29 01:29:23;;;;;;;105.25;22.27;;;;;;;;;;5145960;27;20077;-56
2021/12/29 01:31:49;;;;;;;107.35;22.08;;;;;;;;;;5145615;27;20117;-57
2021/12/29 01:34:15;;;;;;;102.40;22.77;;;;;;;;;;5145735;27;20051;-56
2021/12/29 01:36:42;;;;;;;101.45;20.40;;;;;;;;;;5145155;27;20039;-57
2021/12/29 01:39:11;;;;;;;92.63;21.58;;;;;;;;;;5145405;27;20050;-57
2021/12/29 01:41:37;;;;;;;91.82;21.30;;;;;;;;;;5145525;28;20117;-55
2021/12/29 01:44:04;;;;;;;94.57;21.27;;;;;;;;;;5145928;28;20045;-56
2021/12/29 01:46:30;;;;;;;92.68;20.98;;;;;;;;;;5145548;28;20039;-56
2021/12/29 01:48:56;;;;;;;89.20;21.45;;;;;;;;;;5145403;28;20391;-55
2021/12/29 01:51:23;;;;;;;122.47;23.60;;;;;;;;;;5144869;28;20048;-55
2021/12/29 01:54:02;;;;;;;137.88;26.63;;;;;;;;;;5145268;28;20043;-56
2021/12/29 01:56:29;;;;;;;106.50;20.73;;;;;;;;;;5145681;28;20430;-54
2021/12/29 01:58:55;;;;;;;110.20;22.48;;;;;;;;;;5145553;28;20473;-57
2021/12/29 02:01:21;;;;;;;86.93;19.90;;;;;;;;;;5126809;28;20071;-57
2021/12/29 02:03:48;;;;;;;95.43;19.98;;;;;;;;;;5148002;27;20556;-56
2021/12/29 02:06:14;;;;;;;144.70;24.00;;;;;;;;;;5148793;27;20137;-55
2021/12/29 02:08:40;;;;;;;135.15;25.30;;;;;;;;;;5149527;27;20051;-55
2021/12/29 02:11:07;;;;;;;98.45;22.17;;;;;;;;;;5149470;27;20039;-55
2021/12/29 02:13:33;;;;;;;112.28;25.70;;;;;;;;;;5149340;27;20082;-54
2021/12/29 02:16:00;;;;;;;120.13;27.65;;;;;;;;;;5149230;27;20039;-55
2021/12/29 02:18:26;;;;;;;130.30;27.40;;;;;;;;;;5149538;27;20075;-56
2021/12/29 02:20:54;;;;;;;107.50;25.13;;;;;;;;;;5148671;27;20051;-56
2021/12/29 02:24:04;;;;;;;105.80;24.50;;;;;;;;;;5149136;27;20072;-56
2021/12/29 02:26:13;;;;;;;133.25;29.75;;;;;;;;;;5145036;27;20047;-55
2021/12/29 02:28:41;;;;;;;107.97;23.30;;;;;;;;;;5149004;27;20057;-55
2021/12/29 02:31:07;;;;;;;115.18;26.13;;;;;;;;;;5148854;27;20043;-55
2021/12/29 02:33:34;;;;;;;122.53;25.80;;;;;;;;;;5149270;27;20121;-56
2021/12/29 02:36:01;;;;;;;107.93;23.13;;;;;;;;;;5148734;27;20035;-56
2021/12/29 02:38:29;;;;;;;83.55;20.85;;;;;;;;;;5148913;27;20086;-57
2021/12/29 02:40:57;;;;;;;93.43;20.95;;;;;;;;;;5148816;27;20046;-55
2021/12/29 02:43:24;;;;;;;69.32;17.10;;;;;;;;;;5130357;27;20402;-55
2021/12/29 02:45:58;;;;;;;61.88;16.85;;;;;;;;;;5148895;27;20042;-55
2021/12/29 02:48:24;;;;;;;62.13;15.25;;;;;;;;;;5148747;27;20047;-55
2021/12/29 02:50:55;;;;;;;75.30;15.68;;;;;;;;;;5148406;27;20042;-55
2021/12/29 02:53:21;;;;;;;54.78;13.65;;;;;;;;;;5148391;27;20058;-56
2021/12/29 02:55:47;;;;;;;56.75;15.68;;;;;;;;;;5130049;27;20524;-56
2021/12/29 02:58:13;;;;;;;72.03;15.20;;;;;;;;;;5148720;27;20053;-56
2021/12/29 03:00:40;;;;;;;76.05;16.15;;;;;;;;;;5148335;27;20043;-55
2021/12/29 03:03:19;;;;;;;89.68;16.30;;;;;;;;;;5148628;27;20054;-56
2021/12/29 03:05:46;;;;;;;78.63;16.05;;;;;;;;;;5148008;27;20047;-57
2021/12/29 03:08:13;;;;;;;67.75;13.77;;;;;;;;;;5147776;27;20077;-55
2021/12/29 03:10:40;;;;;;;82.30;16.02;;;;;;;;;;5148134;27;20043;-55
2021/12/29 03:13:07;;;;;;;87.70;17.17;;;;;;;;;;5148223;27;20039;-56
2021/12/29 03:15:33;;;;;;;74.28;15.98;;;;;;;;;;5147281;27;20121;-55
2021/12/29 03:17:59;;;;;;;86.13;17.20;;;;;;;;;;5148356;27;20035;-56
2021/12/29 03:20:25;;;;;;;90.72;19.05;;;;;;;;;;5147310;27;20059;-55
2021/12/29 03:22:53;;;;;;;96.93;17.55;;;;;;;;;;5147863;27;20512;-55
2021/12/29 03:25:19;;;;;;;83.13;17.83;;;;;;;;;;5147814;27;20134;-54
2021/12/29 03:27:45;;;;;;;81.95;17.23;;;;;;;;;;5148034;27;20104;-55
2021/12/29 03:30:11;;;;;;;88.95;18.85;;;;;;;;;;5147952;27;20045;-55
2021/12/29 03:32:44;;;;;;;73.30;17.10;;;;;;;;;;5147839;27;20032;-56
2021/12/29 03:35:10;;;;;;;74.82;17.98;;;;;;;;;;5147408;27;20081;-55
2021/12/29 03:37:37;;;;;;;92.38;19.25;;;;;;;;;;5128984;27;20430;-55
2021/12/29 03:40:05;;;;;;;94.95;23.00;;;;;;;;;;5147720;27;20039;-54
2021/12/29 03:42:31;;;;;;;97.13;21.85;;;;;;;;;;5147542;27;20499;-56
2021/12/29 03:44:57;;;;;;;88.45;21.05;;;;;;;;;;5135058;27;20042;-54
2021/12/29 03:47:23;;;;;;;104.05;25.20;;;;;;;;;;5127193;28;20054;-55
2021/12/29 03:49:49;;;;;;;113.40;26.20;;;;;;;;;;5126786;28;20159;-55
2021/12/29 03:52:16;;;;;;;113.20;25.65;;;;;;;;;;5126139;28;20051;-54
2021/12/29 03:54:42;;;;;;;104.88;24.23;;;;;;;;;;5127080;28;20122;-56
2021/12/29 03:57:08;;;;;;;107.50;24.60;;;;;;;;;;5126922;28;20043;-54
2021/12/29 03:59:34;;;;;;;113.10;26.23;;;;;;;;;;5126828;28;20044;-54
2021/12/29 04:02:00;;;;;;;101.07;23.67;;;;;;;;;;5126738;28;20065;-53
2021/12/29 04:04:27;;;;;;;119.30;25.55;;;;;;;;;;5126724;28;20066;-56
2021/12/29 04:06:53;;;;;;;126.35;26.15;;;;;;;;;;5126019;28;20063;-57
2021/12/29 04:09:20;;;;;;;112.32;26.33;;;;;;;;;;5126644;28;20066;-56
2021/12/29 04:11:50;;;;;;;102.32;23.33;;;;;;;;;;5107703;28;20086;-56
2021/12/29 04:14:19;;;;;;;96.60;21.90;;;;;;;;;;5126668;28;20073;-56
2021/12/29 04:16:46;;;;;;;103.15;22.05;;;;;;;;;;5126335;28;20051;-55
2021/12/29 04:19:28;;;;;;;97.05;23.40;;;;;;;;;;5126383;28;20107;-55
2021/12/29 04:21:55;;;;;;;97.40;24.45;;;;;;;;;;5138730;27;20070;-56
2021/12/29 04:24:21;;;;;;;128.05;25.58;;;;;;;;;;5146849;27;20070;-56
2021/12/29 04:26:47;;;;;;;92.95;23.08;;;;;;;;;;5145814;27;20069;-56
2021/12/29 04:29:13;;;;;;;84.13;21.42;;;;;;;;;;5146750;27;20051;-56
2021/12/29 04:31:40;;;;;;;92.75;21.42;;;;;;;;;;5146414;27;20080;-56
2021/12/29 04:34:07;;;;;;;99.60;22.20;;;;;;;;;;5146598;27;20108;-56
2021/12/29 04:36:33;;;;;;;83.90;19.60;;;;;;;;;;5146384;27;20072;-56
2021/12/29 04:39:01;;;;;;;81.25;21.17;;;;;;;;;;5146484;27;20122;-55
2021/12/29 04:41:27;;;;;;;92.85;23.70;;;;;;;;;;5146589;27;20061;-57
2021/12/29 04:43:53;;;;;;;75.32;21.88;;;;;;;;;;5146525;27;20057;-56
2021/12/29 04:46:27;;;;;;;87.90;23.42;;;;;;;;;;5146327;27;20126;-56
2021/12/29 04:48:59;;;;;;;81.13;23.17;;;;;;;;;;5146895;27;20103;-55
2021/12/29 04:51:33;;;;;;;84.70;23.80;;;;;;;;;;5145913;27;20470;-55
2021/12/29 04:53:59;;;;;;;91.57;25.65;;;;;;;;;;5146210;27;20038;-55
2021/12/29 04:56:26;;;;;;;80.38;24.30;;;;;;;;;;5146089;27;20045;-56
2021/12/29 04:58:52;;;;;;;99.90;26.27;;;;;;;;;;5146251;27;20050;-55
2021/12/29 05:01:18;;;;;;;122.93;29.35;;;;;;;;;;5146097;27;20043;-55
2021/12/29 05:03:45;;;;;;;98.38;25.00;;;;;;;;;;5146600;27;20041;-56
2021/12/29 05:08:38;;;;;;;98.82;24.30;;;;;;;;;;5145882;27;20054;-55
2021/12/29 05:11:05;;;;;;;98.00;25.80;;;;;;;;;;5145874;27;20035;-56
2021/12/29 05:13:33;;;;;;;105.70;26.27;;;;;;;;;;5146021;27;20075;-55
2021/12/29 05:15:59;;;;;;;96.78;26.27;;;;;;;;;;5146064;27;20125;-56
2021/12/29 05:18:27;;;;;;;114.35;25.77;;;;;;;;;;5145788;27;20076;-56
2021/12/29 05:20:54;;;;;;;109.95;25.35;;;;;;;;;;5145072;27;20043;-56
2021/12/29 05:23:20;;;;;;;114.57;28.83;;;;;;;;;;5145726;27;20050;-56
2021/12/29 05:25:46;;;;;;;117.53;27.77;;;;;;;;;;5145738;27;20035;-56
2021/12/29 05:28:12;;;;;;;116.57;25.75;;;;;;;;;;5145606;27;20092;-57
2021/12/29 05:30:39;;;;;;;110.22;26.95;;;;;;;;;;5145746;27;20065;-55
2021/12/29 05:33:05;;;;;;;118.65;27.02;;;;;;;;;;5145862;27;20069;-54
2021/12/29 05:35:32;;;;;;;150.43;29.35;;;;;;;;;;5126681;27;20035;-55
2021/12/29 05:38:00;;;;;;;116.82;25.85;;;;;;;;;;5145172;27;20046;-54
2021/12/29 05:40:27;;;;;;;117.82;26.38;;;;;;;;;;5145590;27;20043;-56
2021/12/29 05:42:54;;;;;;;106.47;24.70;;;;;;;;;;5145710;28;20418;-54
2021/12/29 05:45:20;;;;;;;147.15;28.40;;;;;;;;;;5145378;28;20046;-55
2021/12/29 05:47:46;;;;;;;94.05;26.00;;;;;;;;;;5145521;28;20051;-54
2021/12/29 05:50:14;;;;;;;101.43;25.63;;;;;;;;;;5144871;28;20080;-56
2021/12/29 05:52:40;;;;;;;91.07;26.02;;;;;;;;;;5145408;28;20055;-55
2021/12/29 05:55:07;;;;;;;104.30;27.15;;;;;;;;;;5145721;28;20039;-55
2021/12/29 05:57:33;;;;;;;102.97;28.13;;;;;;;;;;5145509;28;20578;-57
2021/12/29 06:00:00;;;;;;;86.90;25.75;;;;;;;;;;5126957;28;20047;-56
2021/12/29 06:02:26;;;;;;;76.78;23.25;;;;;;;;;;5145356;28;20039;-57
2021/12/29 06:04:52;;;;;;;95.78;26.13;;;;;;;;;;5145414;28;20051;-57
2021/12/29 06:07:18;;;;;;;71.80;22.65;;;;;;;;;;5144930;28;20079;-56
2021/12/29 06:09:44;;;;;;;79.53;23.90;;;;;;;;;;5145098;28;20070;-56
2021/12/29 06:12:10;;;;;;;88.53;28.08;;;;;;;;;;5145238;28;20065;-56
2021/12/29 06:14:37;;;;;;;85.25;24.20;;;;;;;;;;5145325;28;20107;-53
2021/12/29 06:17:03;;;;;;;87.60;26.60;;;;;;;;;;5145231;28;20333;-54
2021/12/29 06:19:30;;;;;;;70.13;22.80;;;;;;;;;;5145504;28;20068;-54
2021/12/29 06:21:56;;;;;;;80.97;24.52;;;;;;;;;;5144897;28;20439;-54
2021/12/29 06:24:22;;;;;;;79.30;24.30;;;;;;;;;;5126578;28;20125;-56
2021/12/29 06:26:48;;;;;;;65.90;21.95;;;;;;;;;;5144947;28;20094;-55
2021/12/29 06:29:15;;;;;;;79.90;26.42;;;;;;;;;;5145063;28;20679;-55
2021/12/29 06:31:44;;;;;;;81.75;27.83;;;;;;;;;;5145094;28;20045;-54
2021/12/29 06:34:11;;;;;;;73.53;24.60;;;;;;;;;;5145450;28;20054;-56
2021/12/29 06:36:37;;;;;;;86.32;27.77;;;;;;;;;;5144443;28;20059;-56
2021/12/29 06:39:03;;;;;;;71.90;26.55;;;;;;;;;;5145094;28;20035;-56
2021/12/29 06:41:29;;;;;;;84.22;24.73;;;;;;;;;;5144980;28;20139;-56
2021/12/29 06:43:55;;;;;;;91.03;26.92;;;;;;;;;;5145227;28;20043;-57
2021/12/29 06:46:21;;;;;;;83.15;26.27;;;;;;;;;;5145005;28;20044;-55
2021/12/29 06:48:47;;;;;;;87.13;24.65;;;;;;;;;;5144884;27;20039;-56
2021/12/29 06:51:14;;;;;;;78.63;22.70;;;;;;;;;;5147279;27;20082;-55
2021/12/29 06:53:40;;;;;;;100.28;26.20;;;;;;;;;;5148631;27;20043;-54
2021/12/29 06:56:06;;;;;;;96.85;26.92;;;;;;;;;;5148414;27;20106;-55
2021/12/29 06:58:33;;;;;;;99.97;26.83;;;;;;;;;;5149000;27;20047;-54
2021/12/29 07:00:59;;;;;;;96.07;24.98;;;;;;;;;;5148384;27;20042;-54
2021/12/29 07:03:26;;;;;;;99.00;25.65;;;;;;;;;;5148561;27;20048;-54
2021/12/29 07:05:54;;;;;;;106.32;27.25;;;;;;;;;;5148006;27;20149;-56
2021/12/29 07:08:20;;;;;;;110.82;26.50;;;;;;;;;;5147833;27;20448;-57
2021/12/29 07:10:46;;;;;;;111.35;27.30;;;;;;;;;;5148373;27;20039;-55
2021/12/29 07:13:13;;;;;;;127.60;29.83;;;;;;;;;;5148392;27;20047;-56
2021/12/29 07:15:39;;;;;;;129.20;28.35;;;;;;;;;;5148073;27;20131;-55
2021/12/29 07:18:05;;;;;;;116.72;27.30;;;;;;;;;;5148050;27;20101;-53
2021/12/29 07:20:32;;;;;;;131.57;31.63;;;;;;;;;;5147395;27;20050;-56
2021/12/29 07:22:59;;;;;;;172.35;30.42;;;;;;;;;;5148079;27;20044;-56
2021/12/29 07:25:29;;;;;;;147.57;29.85;;;;;;;;;;5148005;27;20221;-56
2021/12/29 07:27:55;;;;;;;149.75;27.73;;;;;;;;;;5147872;27;20047;-54
2021/12/29 07:30:22;;;;;;;141.98;26.38;;;;;;;;;;5147806;27;20083;-56
2021/12/29 07:32:48;;;;;;;163.93;29.42;;;;;;;;;;5147908;27;20039;-57
2021/12/29 07:35:14;;;;;;;146.27;30.17;;;;;;;;;;5147361;27;20098;-56
2021/12/29 07:37:40;;;;;;;169.30;29.83;;;;;;;;;;5147792;27;20035;-57
2021/12/29 07:40:08;;;;;;;147.88;28.45;;;;;;;;;;5147474;27;20126;-56
2021/12/29 07:42:35;;;;;;;191.70;29.88;;;;;;;;;;5147621;27;20507;-57
2021/12/29 07:45:03;;;;;;;132.17;26.60;;;;;;;;;;5147685;27;20100;-55
2021/12/29 07:47:29;;;;;;;169.30;31.77;;;;;;;;;;5147680;27;20904;-54
2021/12/29 07:49:56;;;;;;;133.55;27.20;;;;;;;;;;5147468;27;20088;-54
2021/12/29 07:52:22;;;;;;;167.10;28.35;;;;;;;;;;5146820;27;20524;-57
2021/12/29 07:54:48;;;;;;;129.15;27.73;;;;;;;;;;5147427;27;20065;-56
2021/12/29 07:57:14;;;;;;;119.60;27.00;;;;;;;;;;5147240;27;20107;-56
2021/12/29 07:59:40;;;;;;;137.30;28.48;;;;;;;;;;5147200;27;20074;-56
2021/12/29 08:02:08;;;;;;;166.98;27.15;;;;;;;;;;5147037;27;20043;-55
2021/12/29 08:04:34;;;;;;;145.15;28.70;;;;;;;;;;5147219;27;20051;-56
2021/12/29 08:07:00;;;;;;;122.63;27.15;;;;;;;;;;5146416;27;20138;-56
2021/12/29 08:09:26;;;;;;;119.13;24.33;;;;;;;;;;5146898;27;20088;-56
2021/12/29 08:11:52;;;;;;;111.88;25.20;;;;;;;;;;5146993;27;20045;-57
2021/12/29 08:14:18;;;;;;;105.95;25.08;;;;;;;;;;5146836;27;20101;-55
2021/12/29 08:16:45;;;;;;;101.53;22.92;;;;;;;;;;5147163;27;20043;-57
2021/12/29 08:19:11;;;;;;;121.30;23.85;;;;;;;;;;5147021;27;20068;-55
2021/12/29 08:21:37;;;;;;;105.85;23.48;;;;;;;;;;5146159;27;20047;-56
2021/12/29 08:24:03;;;;;;;135.70;25.00;;;;;;;;;;5146590;27;20043;-57
2021/12/29 08:26:29;;;;;;;113.70;24.27;;;;;;;;;;5146896;27;20114;-56
2021/12/29 08:28:58;;;;;;;103.95;24.20;;;;;;;;;;5146929;27;20074;-55
2021/12/29 08:31:25;;;;;;;91.10;23.13;;;;;;;;;;5146422;27;20039;-56
2021/12/29 08:33:54;;;;;;;110.10;23.67;;;;;;;;;;5128402;27;20114;-57
2021/12/29 08:36:20;;;;;;;98.30;22.30;;;;;;;;;;5146136;27;20272;-58
2021/12/29 08:38:46;;;;;;;83.25;21.17;;;;;;;;;;5146188;27;20092;-57
2021/12/29 08:41:13;;;;;;;96.07;22.40;;;;;;;;;;5146682;27;20527;-57
2021/12/29 08:43:39;;;;;;;101.45;23.58;;;;;;;;;;5146377;27;20078;-54
2021/12/29 08:46:06;;;;;;;84.50;21.50;;;;;;;;;;5146673;27;20047;-56
2021/12/29 08:48:32;;;;;;;116.63;24.63;;;;;;;;;;5146341;27;20475;-55
2021/12/29 08:51:00;;;;;;;97.47;22.40;;;;;;;;;;5145535;27;20043;-54
2021/12/29 08:53:26;;;;;;;94.22;23.77;;;;;;;;;;5146343;27;20100;-55
2021/12/29 08:55:55;;;;;;;88.97;22.58;;;;;;;;;;5146493;27;20047;-55
2021/12/29 08:58:24;;;;;;;108.22;26.67;;;;;;;;;;5146255;27;20479;-55
2021/12/29 09:00:51;;;;;;;92.00;22.63;;;;;;;;;;5146248;27;20050;-54
2021/12/29 09:03:17;;;;;;;105.88;24.25;;;;;;;;;;5145825;27;20129;-55
2021/12/29 09:05:43;;;;;;;122.95;25.08;;;;;;;;;;5145806;27;20045;-56
2021/12/29 09:08:09;;;;;;;110.47;25.10;;;;;;;;;;5145665;27;20051;-55
2021/12/29 09:10:36;;;;;;;103.40;22.88;;;;;;;;;;5145829;27;20047;-56
2021/12/29 09:13:03;;;;;;;103.25;22.75;;;;;;;;;;5145557;27;20057;-56
2021/12/29 09:15:29;;;;;;;114.90;20.80;;;;;;;;;;5145860;27;20039;-56
2021/12/29 09:17:55;;;;;;;113.30;22.33;;;;;;;;;;5145910;27;20043;-56
2021/12/29 09:20:29;;;;;;;106.05;22.55;;;;;;;;;;5145261;27;20058;-56
2021/12/29 09:22:57;;;;;;;102.72;18.23;;;;;;;;;;5145422;27;20051;-57
2021/12/29 09:25:24;;;;;;;116.97;22.33;;;;;;;;;;5127173;28;20415;-56
2021/12/29 09:27:50;;;;;;;114.22;21.75;;;;;;;;;;5145824;27;20137;-56
2021/12/29 09:30:20;;;;;;;167.93;24.02;;;;;;;;;;5145554;27;20487;-56
2021/12/29 09:32:46;;;;;;;133.73;22.50;;;;;;;;;;5145683;27;20054;-56
2021/12/29 09:35:13;;;;;;;98.78;20.75;;;;;;;;;;5145186;27;20564;-56
2021/12/29 09:37:40;;;;;;;82.90;19.63;;;;;;;;;;5145417;27;20060;-58
2021/12/29 09:40:06;;;;;;;71.95;17.08;;;;;;;;;;5145452;27;20078;-53
2021/12/29 09:42:32;;;;;;;80.32;18.95;;;;;;;;;;5145683;27;20035;-54
2021/12/29 09:44:59;;;;;;;87.80;18.83;;;;;;;;;;5145668;27;20405;-56
2021/12/29 09:47:25;;;;;;;87.45;19.80;;;;;;;;;;5145661;28;20068;-57
2021/12/29 09:49:51;;;;;;;81.68;17.10;;;;;;;;;;5145514;28;20054;-56
2021/12/29 09:52:17;;;;;;;68.68;17.77;;;;;;;;;;5144974;28;20036;-57
2021/12/29 09:54:43;;;;;;;72.68;18.90;;;;;;;;;;5144973;28;20577;-57
2021/12/29 09:57:10;;;;;;;68.03;18.13;;;;;;;;;;5145480;28;20046;-56
2021/12/29 09:59:36;;;;;;;92.15;20.02;;;;;;;;;;5145668;28;20091;-57
2021/12/29 10:02:02;;;;;;;79.95;17.67;;;;;;;;;;5145132;28;20076;-56
2021/12/29 10:04:33;;;;;;;76.30;19.55;;;;;;;;;;5145260;28;20035;-56
2021/12/29 10:07:09;;;;;;;81.25;18.60;;;;;;;;;;5144734;28;20051;-54
2021/12/29 10:09:36;;;;;;;69.55;18.08;;;;;;;;;;5144944;28;20559;-55
2021/12/29 10:12:07;;;;;;;53.58;18.48;;;;;;;;;;5145092;28;20074;-57
2021/12/29 10:14:34;;;;;;;65.00;17.30;;;;;;;;;;5145572;28;20047;-56
2021/12/29 10:17:00;;;;;;;59.33;17.60;;;;;;;;;;5145106;28;20108;-57
2021/12/29 10:19:26;;;;;;;59.78;16.67;;;;;;;;;;5145230;28;20591;-57
2021/12/29 10:21:52;;;;;;;48.35;13.90;;;;;;;;;;5144589;28;20057;-56
2021/12/29 10:24:19;;;;;;;53.50;14.25;;;;;;;;;;5146623;27;20039;-58
2021/12/29 10:26:47;;;;;;;44.83;15.27;;;;;;;;;;5149387;27;20047;-56
2021/12/29 10:29:14;;;;;;;39.30;13.38;;;;;;;;;;5149059;27;20047;-57
2021/12/29 10:31:43;;;;;;;44.28;14.75;;;;;;;;;;5148866;27;20556;-57
2021/12/29 10:34:11;;;;;;;46.40;14.68;;;;;;;;;;5149249;27;20043;-57
2021/12/29 10:36:41;;;;;;;40.55;12.38;;;;;;;;;;5148396;27;20039;-57
2021/12/29 10:39:07;;;;;;;44.47;14.68;;;;;;;;;;5149020;27;20099;-55
2021/12/29 10:41:42;;;;;;;45.90;15.40;;;;;;;;;;5149200;27;20069;-57
2021/12/29 10:44:09;;;;;;;44.03;16.20;;;;;;;;;;5148835;27;20102;-56
2021/12/29 10:46:35;;;;;;;41.10;14.02;;;;;;;;;;5148682;27;20605;-58
2021/12/29 10:49:06;;;;;;;45.50;14.18;;;;;;;;;;5148678;27;20046;-56
2021/12/29 10:51:33;;;;;;;43.28;14.52;;;;;;;;;;5148104;27;20043;-55
2021/12/29 10:54:06;;;;;;;33.40;14.23;;;;;;;;;;5148806;27;20047;-56
2021/12/29 10:56:33;;;;;;;33.08;15.23;;;;;;;;;;5130359;27;20079;-55
2021/12/29 10:58:59;;;;;;;42.65;15.75;;;;;;;;;;5148715;27;20036;-57
2021/12/29 11:01:26;;;;;;;38.90;14.15;;;;;;;;;;5148149;27;20119;-58
2021/12/29 11:03:53;;;;;;;31.77;13.48;;;;;;;;;;5148491;27;20043;-57
2021/12/29 11:06:21;;;;;;;30.92;14.05;;;;;;;;;;5147943;27;20047;-57
2021/12/29 11:08:47;;;;;;;;;;;;;;;;;;5148447;27;20066;-56
2021/12/29 11:11:14;;;;;;;33.85;12.68;;;;;;;;;;5148288;27;19920;-57
2021/12/29 11:13:41;;;;;;;32.95;13.77;;;;;;;;;;5148239;27;20176;-56
2021/12/29 11:16:09;;;;;;;32.13;13.10;;;;;;;;;;5148260;27;20047;-56
2021/12/29 11:18:41;;;;;;;36.35;12.63;;;;;;;;;;5148159;27;20050;-57
2021/12/29 11:21:07;;;;;;;32.15;12.48;;;;;;;;;;5147782;27;20051;-57
2021/12/29 11:23:35;;;;;;;35.15;11.52;;;;;;;;;;5147810;27;20042;-57
2021/12/29 11:26:02;;;;;;;29.33;11.98;;;;;;;;;;5147896;27;20055;-57
2021/12/29 11:28:30;;;;;;;27.73;10.93;;;;;;;;;;5147954;27;20049;-57
2021/12/29 11:30:57;;;;;;;30.65;11.50;;;;;;;;;;5147935;27;20051;-57
2021/12/29 11:33:24;;;;;;;24.80;11.27;;;;;;;;;;5147905;27;20084;-58
2021/12/29 11:35:52;;;;;;;26.67;10.88;;;;;;;;;;5146997;27;20125;-57
2021/12/29 11:38:19;;;;;;;29.50;11.70;;;;;;;;;;5147487;27;20047;-56
2021/12/29 11:40:47;;;;;;;34.45;10.07;;;;;;;;;;5147907;27;20046;-57
2021/12/29 11:43:14;;;;;;;34.67;12.15;;;;;;;;;;5147987;27;20118;-57
2021/12/29 11:45:41;;;;;;;26.52;11.32;;;;;;;;;;5147637;27;20074;-57
2021/12/29 11:48:08;;;;;;;33.77;11.63;;;;;;;;;;5147696;27;20582;-57
2021/12/29 11:50:36;;;;;;;26.65;11.63;;;;;;;;;;5146613;27;20349;-56
2021/12/29 11:53:02;;;;;;;;;;;;;;;;;;5147764;27;20039;-56
2021/12/29 11:55:30;;;;;;;30.73;12.20;;;;;;;;;;5147418;27;19921;-57
2021/12/29 11:58:07;;;;;;;30.27;10.73;;;;;;;;;;5147249;27;20043;-56
2021/12/29 12:00:34;;;;;;;22.98;10.18;;;;;;;;;;5128781;27;20537;-58
2021/12/29 12:03:13;;;;;;;23.33;11.20;;;;;;;;;;5147728;27;20065;-57
2021/12/29 12:05:43;;;;;;;27.08;11.50;;;;;;;;;;5146709;27;20055;-57
2021/12/29 12:08:11;;;;;;;26.92;11.52;;;;;;;;;;5146752;27;20055;-56
2021/12/29 12:10:39;;;;;;;32.03;10.50;;;;;;;;;;5147038;27;20242;-56
2021/12/29 12:13:19;;;;;;;46.13;13.10;;;;;;;;;;5147239;27;20046;-57
2021/12/29 12:15:45;;;;;;;29.13;11.73;;;;;;;;;;5146971;27;20047;-58
2021/12/29 12:18:11;;;;;;;37.72;11.52;;;;;;;;;;5147108;27;20132;-57
2021/12/29 12:20:40;;;;;;;28.48;11.82;;;;;;;;;;5146344;27;20039;-57
2021/12/29 12:23:07;;;;;;;27.02;10.75;;;;;;;;;;5146640;27;20057;-58
2021/12/29 12:25:33;;;;;;;35.40;12.57;;;;;;;;;;5146782;27;20108;-56
2021/12/29 12:28:03;;;;;;;28.33;11.07;;;;;;;;;;5146849;27;20055;-56
2021/12/29 12:30:40;;;;;;;29.15;11.80;;;;;;;;;;5147126;27;20043;-56
2021/12/29 12:33:10;;;;;;;31.83;10.90;;;;;;;;;;5147059;27;20050;-56
2021/12/29 12:35:44;;;;;;;31.35;9.65;;;;;;;;;;5127522;27;20047;-56
2021/12/29 12:38:20;;;;;;;22.05;8.77;;;;;;;;;;5146698;27;20046;-58
2021/12/29 12:40:47;;;;;;;34.03;10.07;;;;;;;;;;5146336;27;20047;-57
2021/12/29 12:43:17;;;;;;;27.45;9.43;;;;;;;;;;5146655;27;20043;-58
2021/12/29 12:45:45;;;;;;;21.25;9.10;;;;;;;;;;5146632;27;20043;-57
2021/12/29 12:48:21;;;;;;;28.35;10.10;;;;;;;;;;5145476;27;20043;-57
2021/12/29 12:50:48;;;;;;;26.70;9.02;;;;;;;;;;5145768;27;20053;-57
2021/12/29 12:53:16;;;;;;;27.65;9.68;;;;;;;;;;5146122;27;20050;-58
2021/12/29 12:55:52;;;;;;;31.80;8.93;;;;;;;;;;5146095;27;20103;-57
2021/12/29 12:58:18;;;;;;;22.85;7.95;;;;;;;;;;5146359;27;20077;-56
2021/12/29 13:00:47;;;;;;;28.35;7.50;;;;;;;;;;5146366;27;20043;-58
2021/12/29 13:03:14;;;;;;;27.63;7.95;;;;;;;;;;5146037;27;20067;-58
2021/12/29 13:05:42;;;;;;;23.80;7.00;;;;;;;;;;5126935;27;20054;-57
2021/12/29 13:08:15;;;;;;;21.52;6.82;;;;;;;;;;5145490;27;20115;-56
2021/12/29 13:10:49;;;;;;;25.38;7.13;;;;;;;;;;5145900;27;20437;-57
2021/12/29 13:13:18;;;;;;;25.42;6.78;;;;;;;;;;5145815;27;20043;-57
2021/12/29 13:15:48;;;;;;;17.38;6.10;;;;;;;;;;5145623;27;20072;-57
2021/12/29 13:18:17;;;;;;;17.45;6.45;;;;;;;;;;5145922;27;20035;-57
2021/12/29 13:20:46;;;;;;;15.93;6.10;;;;;;;;;;5145191;27;20035;-57
2021/12/29 13:23:17;;;;;;;22.65;6.88;;;;;;;;;;5145679;27;20050;-58
2021/12/29 13:25:44;;;;;;;25.23;6.50;;;;;;;;;;5145704;27;20070;-58
2021/12/29 13:28:13;;;;;;;22.88;7.13;;;;;;;;;;5145723;27;20047;-57
2021/12/29 13:30:52;;;;;;;19.02;6.47;;;;;;;;;;5145890;27;20087;-57
2021/12/29 13:33:44;;;;;;;23.70;6.57;;;;;;;;;;5145426;27;20066;-57
2021/12/29 13:36:11;;;;;;;19.40;6.03;;;;;;;;;;5121928;27;20054;-57
2021/12/29 13:38:37;;;;;;;15.52;5.35;;;;;;;;;;5145433;27;20066;-58
2021/12/29 13:41:11;;;;;;;13.52;6.40;;;;;;;;;;5145640;27;20051;-58
2021/12/29 13:43:39;;;;;;;18.40;6.65;;;;;;;;;;5145550;28;20035;-57
2021/12/29 13:46:12;;;;;;;23.30;5.00;;;;;;;;;;5145592;28;20078;-57
2021/12/29 13:48:40;;;;;;;13.75;5.53;;;;;;;;;;5145528;28;20062;-57
2021/12/29 13:51:07;;;;;;;14.18;5.05;;;;;;;;;;5145050;28;20043;-58
2021/12/29 13:53:35;;;;;;;20.48;7.05;;;;;;;;;;5145447;28;20040;-57
2021/12/29 13:56:05;;;;;;;21.02;5.32;;;;;;;;;;5145480;28;20066;-57
2021/12/29 13:58:32;;;;;;;18.13;5.97;;;;;;;;;;5145894;27;20104;-56
2021/12/29 14:00:58;;;;;;;23.13;5.90;;;;;;;;;;5149730;27;20515;-57
2021/12/29 14:03:24;;;;;;;15.77;6.30;;;;;;;;;;5131006;27;20082;-57
2021/12/29 14:05:50;;;;;;;20.00;6.57;;;;;;;;;;5149191;27;20103;-57
2021/12/29 14:08:17;;;;;;;15.50;6.40;;;;;;;;;;5149081;27;20601;-56
2021/12/29 14:10:44;;;;;;;14.20;6.45;;;;;;;;;;5149498;27;20043;-57
2021/12/29 14:13:15;;;;;;;16.40;6.13;;;;;;;;;;5149682;27;20047;-57
2021/12/29 14:15:41;;;;;;;19.60;8.18;;;;;;;;;;5130718;27;20051;-56
2021/12/29 14:18:13;;;;;;;14.57;6.80;;;;;;;;;;5149419;27;20047;-57
2021/12/29 14:20:39;;;;;;;18.30;7.72;;;;;;;;;;5148549;27;20128;-57
2021/12/29 14:23:06;;;;;;;23.15;8.40;;;;;;;;;;5149201;27;20106;-58